Time;durP1;ratioP1;P1;durP2;ratioP2;P2;SDS_P1;SDS_P2;PMS_P1;PMS_P2;Temp;Humidity;BMP_temperature;BMP_pressure;BME280_temperature;BME280_humidity;BME280_pressure;Samples;Min_cycle;Max_cycle;Signal;HPM_P1;HPM_P2
2021/04/29 00:01:44;;;;;;;8.80;8.10;;;;;;;13.92;92.66;94967.06;5065415;28;20174;-64
2021/04/29 00:04:10;;;;;;;8.57;7.77;;;;;;;13.71;93.27;94960.44;5058870;28;20418;-66
2021/04/29 00:06:35;;;;;;;8.47;7.43;;;;;;;13.54;94.16;94956.63;5055826;28;20576;-64
2021/04/29 00:09:02;;;;;;;8.57;7.77;;;;;;;13.52;95.04;94966.66;5057852;28;20434;-64
2021/04/29 00:11:27;;;;;;;9.87;9.07;;;;;;;13.80;94.09;94957.94;5054636;28;20225;-64
2021/04/29 00:13:53;;;;;;;8.57;7.77;;;;;;;13.48;95.05;94957.75;5055487;28;20426;-63
2021/04/29 00:16:18;;;;;;;10.13;9.07;;;;;;;13.56;94.62;94968.47;5069434;28;20265;-65
2021/04/29 00:18:44;;;;;;;9.30;8.50;;;;;;;13.32;95.60;94965.78;5054131;28;20585;-65
2021/04/29 00:21:09;;;;;;;9.60;8.57;;;;;;;13.03;98.61;94970.22;5055575;28;20250;-67
2021/04/29 00:23:34;;;;;;;10.47;9.47;;;;;;;12.98;98.89;94966.81;5059627;28;20178;-64
2021/04/29 00:26:00;;;;;;;10.53;9.07;;;;;;;13.01;99.56;94974.97;5054294;28;20167;-64
2021/04/29 00:28:25;;;;;;;10.73;9.70;;;;;;;13.04;99.85;94971.81;5053415;28;20175;-67
2021/04/29 00:30:51;;;;;;;9.60;8.70;;;;;;;13.14;98.70;94984.13;5062490;28;20237;-67
2021/04/29 00:33:16;;;;;;;10.87;9.70;;;;;;;13.16;99.12;94980.16;5054247;28;20213;-66
2021/04/29 00:35:42;;;;;;;10.83;9.70;;;;;;;12.99;99.64;94979.72;5055080;28;20229;-66
2021/04/29 00:38:07;;;;;;;9.93;9.00;;;;;;;13.17;100.00;94975.69;5065993;28;20179;-64
2021/04/29 00:40:33;;;;;;;11.47;10.40;;;;;;;12.89;100.00;94982.44;5053860;28;20208;-66
2021/04/29 00:42:59;;;;;;;10.60;9.70;;;;;;;12.77;100.00;94986.47;5055036;28;20182;-64
2021/04/29 00:45:24;;;;;;;10.60;9.60;;;;;;;12.63;100.00;94985.50;5065382;28;20178;-64
2021/04/29 00:47:51;;;;;;;11.33;10.30;;;;;;;12.86;100.00;94983.00;5053576;28;20216;-64
2021/04/29 00:50:19;;;;;;;11.37;10.27;;;;;;;12.76;100.00;94980.41;5060731;28;20538;-64
2021/04/29 00:52:45;;;;;;;11.47;10.40;;;;;;;13.05;100.00;94986.56;5056681;28;20500;-67
2021/04/29 00:55:10;;;;;;;10.97;9.87;;;;;;;13.03;100.00;94980.78;5073767;28;20516;-64
2021/04/29 00:57:36;;;;;;;11.43;10.33;;;;;;;12.99;100.00;94981.59;5056399;28;20187;-62
2021/04/29 01:00:03;;;;;;;11.03;9.70;;;;;;;12.97;100.00;94981.84;5067207;28;20207;-64
2021/04/29 01:02:29;;;;;;;10.50;9.50;;;;;;;13.02;100.00;94989.75;5073562;28;20199;-66
2021/04/29 01:05:04;;;;;;;12.23;9.27;;;;;;;12.74;100.00;94987.00;5062353;28;20420;-66
2021/04/29 01:07:38;;;;;;;9.97;9.07;;;;;;;12.39;100.00;94995.88;5055636;28;20451;-66
2021/04/29 01:10:53;;;;;;;8.97;8.17;;;;;;;12.55;100.00;95000.03;5073226;28;20520;-66
2021/04/29 01:13:24;;;;;;;7.47;6.77;;;;;;;12.35;100.00;95005.38;5072731;28;20444;-66
2021/04/29 01:15:50;;;;;;;6.10;5.70;;;;;;;12.37;100.00;95001.41;5060370;28;20454;-66
2021/04/29 01:18:17;;;;;;;7.33;6.73;;;;;;;12.33;100.00;94991.69;5060586;28;20504;-66
2021/04/29 01:21:04;;;;;;;7.20;5.10;;;;;;;12.00;100.00;95001.03;5061846;28;20453;-66
2021/04/29 01:23:45;;;;;;;7.07;6.37;;;;;;;12.31;100.00;94999.06;5053394;28;20440;-64
2021/04/29 01:26:17;;;;;;;6.90;6.30;;;;;;;12.48;100.00;94993.47;5053293;28;20538;-64
2021/04/29 01:28:45;;;;;;;7.07;6.37;;;;;;;12.28;100.00;95000.38;5052963;28;20421;-66
2021/04/29 01:31:12;;;;;;;7.23;6.53;;;;;;;12.28;100.00;94997.00;5053286;28;20410;-66
2021/04/29 01:33:38;;;;;;;6.30;5.70;;;;;;;12.30;100.00;94998.28;5064647;28;20421;-65
2021/04/29 01:36:04;;;;;;;6.27;5.67;;;;;;;12.37;100.00;94993.50;5072214;28;20417;-64
2021/04/29 01:38:30;;;;;;;6.30;5.80;;;;;;;12.32;100.00;94996.16;5072802;28;20409;-66
2021/04/29 01:40:56;;;;;;;5.60;5.20;;;;;;;12.51;100.00;94998.19;5069971;28;20423;-66
2021/04/29 01:43:23;;;;;;;5.77;5.37;;;;;;;12.48;100.00;95002.16;5057667;28;20645;-66
2021/04/29 01:45:49;;;;;;;5.20;4.80;;;;;;;12.26;100.00;95013.06;5057430;28;20400;-66
2021/04/29 01:48:14;;;;;;;6.63;5.17;;;;;;;12.24;100.00;95011.75;5063130;28;20417;-63
2021/04/29 01:50:40;;;;;;;5.63;5.00;;;;;;;12.35;100.00;95013.28;5062699;28;20183;-64
2021/04/29 01:53:06;;;;;;;6.23;4.60;;;;;;;12.19;100.00;95020.44;5057191;28;20648;-66
2021/04/29 01:55:33;;;;;;;4.70;4.30;;;;;;;12.06;100.00;95014.97;5061498;28;20174;-66
2021/04/29 01:57:59;;;;;;;2.80;2.60;;;;;;;11.91;100.00;95021.06;5073255;28;20456;-66
2021/04/29 02:00:25;;;;;;;3.90;3.60;;;;;;;12.25;100.00;95016.72;5073686;28;20476;-66
2021/04/29 02:02:51;;;;;;;3.40;3.10;;;;;;;12.20;100.00;95015.97;5064186;28;20417;-64
2021/04/29 02:05:16;;;;;;;4.83;3.23;;;;;;;12.29;100.00;95024.88;5057152;28;20168;-64
2021/04/29 02:07:42;;;;;;;2.60;2.40;;;;;;;11.98;100.00;95029.44;5065712;28;20421;-64
2021/04/29 02:10:09;;;;;;;2.93;2.60;;;;;;;11.98;100.00;95031.28;5060614;28;20219;-65
2021/04/29 02:12:38;;;;;;;2.80;2.60;;;;;;;11.95;100.00;95040.53;5078138;28;20200;-63
2021/04/29 02:15:08;;;;;;;2.40;2.20;;;;;;;11.87;100.00;95035.00;5096942;28;20423;-66
2021/04/29 02:17:45;;;;;;;2.50;2.30;;;;;;;12.02;100.00;95037.59;5064515;28;20421;-64
2021/04/29 02:20:13;;;;;;;2.40;1.67;;;;;;;12.24;100.00;95043.34;5056497;28;20540;-64
2021/04/29 02:22:40;;;;;;;1.60;1.50;;;;;;;12.08;100.00;95044.44;5056585;28;20417;-64
2021/04/29 02:25:07;;;;;;;1.67;1.57;;;;;;;11.87;100.00;95051.59;5056466;28;20777;-64
2021/04/29 02:27:34;;;;;;;1.47;1.37;;;;;;;12.10;100.00;95052.88;5072402;28;20470;-65
2021/04/29 02:30:00;;;;;;;1.33;1.33;;;;;;;11.99;100.00;95046.81;5061951;28;20433;-65
2021/04/29 02:32:25;;;;;;;1.43;1.20;;;;;;;11.92;100.00;95048.94;5056682;28;20947;-65
2021/04/29 02:34:51;;;;;;;1.20;1.20;;;;;;;12.04;100.00;95044.19;5057051;28;20246;-64
2021/04/29 02:37:17;;;;;;;1.00;1.00;;;;;;;11.78;100.00;95052.38;5056314;28;20217;-66
2021/04/29 02:39:42;;;;;;;4.63;1.27;;;;;;;12.08;100.00;95044.44;5056272;28;20481;-64
2021/04/29 02:42:08;;;;;;;1.30;1.10;;;;;;;12.06;100.00;95049.97;5056478;28;20171;-66
2021/04/29 02:44:37;;;;;;;1.60;1.50;;;;;;;12.04;100.00;95046.03;5068640;28;20175;-64
2021/04/29 02:47:03;;;;;;;1.30;1.27;;;;;;;12.04;100.00;95052.09;5074943;28;20179;-64
2021/04/29 02:49:28;;;;;;;2.47;1.53;;;;;;;11.90;100.00;95071.31;5075981;28;20428;-67
2021/04/29 02:51:54;;;;;;;1.40;1.30;;;;;;;11.57;100.00;95075.25;5074206;28;20416;-63
2021/04/29 02:54:22;;;;;;;1.50;1.40;;;;;;;12.01;100.00;95078.94;5064658;28;20183;-66
2021/04/29 02:56:47;;;;;;;1.37;1.27;;;;;;;11.87;100.00;95106.06;5071145;28;20416;-66
2021/04/29 02:59:13;;;;;;;1.20;1.10;;;;;;;11.65;100.00;95105.56;5074815;28;20460;-64
2021/04/29 03:01:41;;;;;;;1.70;1.37;;;;;;;11.99;100.00;95110.00;5064996;28;20531;-65
2021/04/29 03:04:06;;;;;;;1.30;1.20;;;;;;;11.91;100.00;95115.81;5056027;28;20242;-66
2021/04/29 03:06:32;;;;;;;2.33;1.70;;;;;;;11.70;100.00;95110.81;5055834;28;20441;-66
2021/04/29 03:08:57;;;;;;;1.30;1.27;;;;;;;11.68;100.00;95100.56;5062423;28;20202;-66
2021/04/29 03:11:23;;;;;;;1.50;1.40;;;;;;;11.60;100.00;95110.75;5069577;28;20199;-64
2021/04/29 03:13:48;;;;;;;1.33;1.23;;;;;;;11.85;100.00;95116.84;5054499;28;20537;-66
2021/04/29 03:16:14;;;;;;;1.27;1.23;;;;;;;11.98;100.00;95118.97;5055839;28;20168;-64
2021/04/29 03:18:40;;;;;;;1.27;1.23;;;;;;;11.96;100.00;95122.91;5055066;28;20187;-64
2021/04/29 03:21:06;;;;;;;1.17;1.10;;;;;;;11.89;100.00;95125.81;5055771;28;20171;-66
2021/04/29 03:23:31;;;;;;;2.83;1.27;;;;;;;11.83;100.00;95126.84;5055545;28;20171;-67
2021/04/29 03:25:57;;;;;;;1.30;1.23;;;;;;;11.82;100.00;95127.91;5060849;28;20417;-66
2021/04/29 03:28:23;;;;;;;1.10;1.10;;;;;;;12.02;100.00;95127.91;5065157;28;20425;-64
2021/04/29 03:30:48;;;;;;;2.60;1.13;;;;;;;12.31;100.00;95128.13;5073800;28;20341;-66
2021/04/29 03:33:13;;;;;;;1.00;0.90;;;;;;;12.07;100.00;95124.47;5075297;28;20190;-64
2021/04/29 03:35:39;;;;;;;0.60;0.60;;;;;;;11.83;100.00;95137.38;5075370;28;20216;-64
2021/04/29 03:38:05;;;;;;;0.80;0.80;;;;;;;12.00;100.00;95137.91;5075024;28;20220;-63
2021/04/29 03:40:31;;;;;;;0.90;0.90;;;;;;;11.87;100.00;95145.53;5073830;28;20233;-66
2021/04/29 03:42:56;;;;;;;0.80;0.80;;;;;;;11.83;100.00;95150.53;5067199;28;20458;-63
2021/04/29 03:45:22;;;;;;;0.90;0.90;;;;;;;12.18;98.92;95152.38;5055287;28;20274;-66
2021/04/29 03:47:48;;;;;;;1.30;1.20;;;;;;;12.17;96.98;95156.06;5056150;28;20198;-66
2021/04/29 03:50:14;;;;;;;0.97;0.80;;;;;;;11.81;97.91;95163.16;5054956;28;20928;-63
2021/04/29 03:52:39;;;;;;;1.53;0.70;;;;;;;11.77;98.30;95167.41;5055123;28;20220;-66
2021/04/29 03:55:06;;;;;;;2.20;1.03;;;;;;;11.55;99.81;95173.91;5055017;28;20568;-63
2021/04/29 03:57:31;;;;;;;0.77;0.77;;;;;;;11.52;100.00;95171.81;5071420;28;20182;-67
2021/04/29 03:59:56;;;;;;;1.37;0.90;;;;;;;11.73;98.43;95170.78;5073753;28;20810;-63
2021/04/29 04:02:22;;;;;;;1.67;0.87;;;;;;;11.97;96.78;95167.41;5074736;28;20212;-64
2021/04/29 04:04:47;;;;;;;1.00;1.00;;;;;;;12.07;96.54;95167.38;5074008;28;20166;-66
2021/04/29 04:07:13;;;;;;;1.17;1.17;;;;;;;12.31;95.55;95168.44;5072332;28;20167;-67
2021/04/29 04:09:38;;;;;;;1.87;1.03;;;;;;;12.13;94.86;95168.97;5062979;28;20202;-64
2021/04/29 04:12:04;;;;;;;1.20;1.10;;;;;;;11.89;95.09;95181.06;5061446;28;20186;-64
2021/04/29 04:14:30;;;;;;;1.13;1.03;;;;;;;11.97;94.14;95183.19;5054700;28;20163;-64
2021/04/29 04:16:55;;;;;;;2.77;1.63;;;;;;;11.95;94.30;95182.66;5069433;28;20420;-68
2021/04/29 04:19:21;;;;;;;1.30;1.20;;;;;;;11.26;97.34;95190.16;5073258;28;20226;-66
2021/04/29 04:21:46;;;;;;;1.10;1.10;;;;;;;11.55;97.57;95193.13;5074453;28;20564;-63
2021/04/29 04:24:11;;;;;;;1.30;1.20;;;;;;;11.47;96.23;95195.47;5055069;28;20182;-64
2021/04/29 04:26:37;;;;;;;1.97;1.47;;;;;;;11.13;98.13;95203.75;5053170;28;20526;-63
2021/04/29 04:29:02;;;;;;;1.90;1.40;;;;;;;11.45;96.58;95203.59;5057863;28;20187;-63
2021/04/29 04:31:28;;;;;;;2.87;1.73;;;;;;;11.25;96.66;95200.94;5073848;28;20170;-66
2021/04/29 04:33:53;;;;;;;4.43;1.70;;;;;;;11.34;95.23;95204.63;5074551;28;20158;-66
2021/04/29 04:36:19;;;;;;;1.33;1.33;;;;;;;11.56;93.37;95199.94;5074167;28;20679;-64
2021/04/29 04:38:44;;;;;;;1.60;1.50;;;;;;;11.53;93.14;95200.47;5072933;28;20191;-64
2021/04/29 04:41:09;;;;;;;2.10;2.00;;;;;;;11.55;94.09;95198.38;5074355;28;20170;-64
2021/04/29 04:43:35;;;;;;;1.97;1.83;;;;;;;11.84;92.50;95209.22;5074064;28;20219;-64
2021/04/29 04:46:00;;;;;;;2.90;2.13;;;;;;;11.43;93.75;95199.66;5068670;28;20206;-66
2021/04/29 04:48:26;;;;;;;2.50;2.20;;;;;;;11.59;92.57;95212.59;5059279;28;20181;-64
2021/04/29 04:50:51;;;;;;;2.13;2.03;;;;;;;11.48;92.84;95210.97;5058647;28;20189;-64
2021/04/29 04:53:17;;;;;;;2.80;2.00;;;;;;;11.16;96.06;95224.28;5073886;28;20171;-66
2021/04/29 04:55:46;;;;;;;2.13;1.93;;;;;;;11.54;94.25;95222.31;5073656;28;20633;-66
2021/04/29 04:58:12;;;;;;;1.83;1.73;;;;;;;11.68;93.41;95224.22;5073426;28;20193;-66
2021/04/29 05:00:38;;;;;;;2.27;2.07;;;;;;;11.55;92.78;95223.88;5057552;28;20450;-64
2021/04/29 05:03:04;;;;;;;3.20;2.60;;;;;;;11.73;90.85;95237.38;5058044;28;20621;-66
2021/04/29 05:05:29;;;;;;;2.13;2.03;;;;;;;11.66;92.62;95234.22;5073679;28;20416;-66
2021/04/29 05:07:58;;;;;;;2.90;2.70;;;;;;;11.44;92.02;95238.84;5073396;28;20242;-66
2021/04/29 05:10:24;;;;;;;2.73;2.27;;;;;;;11.32;94.26;95240.91;5070548;28;20217;-63
2021/04/29 05:12:49;;;;;;;2.50;2.30;;;;;;;11.69;92.94;95243.41;5073215;28;20904;-63
2021/04/29 05:15:14;;;;;;;2.97;2.50;;;;;;;11.62;92.04;95248.09;5068055;28;20254;-66
2021/04/29 05:17:40;;;;;;;3.10;2.90;;;;;;;11.44;92.23;95249.38;5053155;28;20711;-66
2021/04/29 05:20:05;;;;;;;3.10;2.83;;;;;;;11.60;91.25;95248.38;5053475;28;20198;-64
2021/04/29 05:22:31;;;;;;;2.67;2.50;;;;;;;11.78;90.00;95245.28;5053668;28;20199;-65
2021/04/29 05:24:56;;;;;;;3.37;3.07;;;;;;;11.17;90.06;95246.91;5053305;28;20182;-64
2021/04/29 05:27:21;;;;;;;4.70;3.17;;;;;;;10.97;90.73;95256.53;5053242;28;20167;-63
2021/04/29 05:29:48;;;;;;;3.87;3.57;;;;;;;11.20;91.15;95246.38;5057491;28;20662;-67
2021/04/29 05:32:14;;;;;;;3.20;3.00;;;;;;;11.10;91.67;95238.47;5073450;28;20525;-66
2021/04/29 05:34:40;;;;;;;3.27;2.97;;;;;;;11.24;91.83;95244.84;5073365;28;20405;-63
2021/04/29 05:37:06;;;;;;;3.73;3.40;;;;;;;11.25;91.04;95240.38;5073207;28;20185;-64
2021/04/29 05:39:31;;;;;;;3.00;2.73;;;;;;;11.14;93.30;95234.25;5064659;28;21015;-66
2021/04/29 05:41:56;;;;;;;3.47;2.60;;;;;;;10.79;93.87;95241.19;5053553;28;20733;-63
2021/04/29 05:44:22;;;;;;;3.43;2.97;;;;;;;10.63;93.52;95242.13;5055044;28;20178;-63
2021/04/29 05:46:47;;;;;;;3.47;3.20;;;;;;;10.88;93.88;95252.78;5067002;28;20224;-65
2021/04/29 05:49:13;;;;;;;4.70;3.20;;;;;;;10.90;92.82;95254.13;5068051;28;20250;-63
2021/04/29 05:51:39;;;;;;;3.13;2.93;;;;;;;11.28;91.92;95253.78;5073229;28;20182;-64
2021/04/29 05:54:05;;;;;;;3.83;3.07;;;;;;;11.49;90.03;95254.63;5062675;28;20186;-66
2021/04/29 05:56:30;;;;;;;3.30;3.10;;;;;;;11.41;90.16;95258.56;5053189;28;20818;-63
2021/04/29 05:58:55;;;;;;;4.33;3.30;;;;;;;11.25;91.09;95269.28;5053334;28;20209;-64
2021/04/29 06:01:21;;;;;;;5.83;3.80;;;;;;;11.09;91.00;95260.53;5073509;28;20162;-66
2021/04/29 06:03:48;;;;;;;4.43;3.30;;;;;;;10.93;91.30;95271.22;5058646;28;20302;-66
2021/04/29 06:06:13;;;;;;;3.73;3.43;;;;;;;10.90;93.02;95276.97;5062557;28;20182;-64
2021/04/29 06:08:39;;;;;;;4.17;3.23;;;;;;;10.73;93.02;95278.97;5072730;28;20424;-64
2021/04/29 06:11:04;;;;;;;4.50;4.00;;;;;;;10.83;93.43;95279.84;5054876;28;20171;-66
2021/04/29 06:13:29;;;;;;;3.80;3.50;;;;;;;10.94;93.21;95267.56;5066397;28;20645;-65
2021/04/29 06:15:55;;;;;;;4.53;3.80;;;;;;;10.82;93.51;95274.81;5072970;28;20192;-63
2021/04/29 06:18:20;;;;;;;4.90;3.90;;;;;;;10.67;94.39;95274.75;5072612;28;20167;-66
2021/04/29 06:20:47;;;;;;;4.37;3.97;;;;;;;10.95;93.82;95262.03;5068157;28;20289;-63
2021/04/29 06:23:12;;;;;;;4.67;3.93;;;;;;;10.95;92.91;95261.22;5072888;28;20536;-63
2021/04/29 06:25:37;;;;;;;4.10;3.80;;;;;;;11.21;92.22;95253.22;5073026;28;20410;-65
2021/04/29 06:28:03;;;;;;;4.20;3.80;;;;;;;11.45;90.68;95252.78;5075633;28;20174;-66
2021/04/29 06:30:29;;;;;;;3.80;3.50;;;;;;;11.54;89.33;95259.91;5056922;28;20237;-63
2021/04/29 06:32:54;;;;;;;4.97;4.20;;;;;;;11.39;89.77;95265.91;5056422;28;20175;-63
2021/04/29 06:35:19;;;;;;;4.70;4.17;;;;;;;11.02;91.64;95273.09;5056210;28;20179;-64
2021/04/29 06:37:45;;;;;;;4.47;4.07;;;;;;;11.13;91.48;95269.50;5071289;28;20174;-65
2021/04/29 06:40:12;;;;;;;4.47;4.07;;;;;;;11.26;90.76;95269.03;5065511;28;20210;-63
2021/04/29 06:42:38;;;;;;;4.57;3.80;;;;;;;11.55;90.46;95268.59;5056421;28;20217;-66
2021/04/29 06:45:04;;;;;;;5.60;4.30;;;;;;;11.31;91.88;95268.25;5072640;28;20495;-65
2021/04/29 06:47:32;;;;;;;4.80;4.40;;;;;;;11.40;90.09;95262.25;5075671;28;20174;-64
2021/04/29 06:49:57;;;;;;;5.33;4.80;;;;;;;11.52;89.90;95269.94;5068785;28;20528;-64
2021/04/29 06:52:23;;;;;;;7.80;5.00;;;;;;;11.86;89.25;95265.03;5055955;28;20453;-65
2021/04/29 06:54:48;;;;;;;5.27;4.77;;;;;;;12.10;87.32;95261.63;5056292;28;20167;-64
2021/04/29 06:57:14;;;;;;;5.07;4.67;;;;;;;12.05;87.19;95276.63;5055772;28;20305;-64
2021/04/29 06:59:41;;;;;;;4.80;4.40;;;;;;;11.93;87.54;95274.28;5066711;28;21918;-63
2021/04/29 07:02:07;;;;;;;6.13;5.53;;;;;;;11.91;87.86;95267.66;5056047;28;20504;-66
2021/04/29 07:04:32;;;;;;;6.07;5.47;;;;;;;12.23;85.95;95268.22;5056223;28;20520;-65
2021/04/29 07:06:58;;;;;;;6.90;6.30;;;;;;;12.17;86.91;95277.19;5055811;28;20412;-64
2021/04/29 07:09:23;;;;;;;7.57;6.87;;;;;;;12.05;83.78;95277.44;5056686;28;20186;-67
2021/04/29 07:11:49;;;;;;;6.83;6.20;;;;;;;12.18;84.64;95279.56;5055457;28;20275;-67
2021/04/29 07:14:14;;;;;;;7.60;6.80;;;;;;;12.32;84.15;95278.00;5060509;28;20167;-64
2021/04/29 07:16:39;;;;;;;7.13;6.53;;;;;;;12.65;84.25;95281.16;5056961;28;20218;-63
2021/04/29 07:19:05;;;;;;;11.10;6.93;;;;;;;12.73;83.49;95276.16;5058473;28;20681;-63
2021/04/29 07:21:30;;;;;;;7.30;6.57;;;;;;;12.77;83.37;95289.59;5072104;28;20175;-66
2021/04/29 07:23:56;;;;;;;7.50;6.10;;;;;;;12.54;83.32;95287.50;5075739;28;20167;-65
2021/04/29 07:26:21;;;;;;;9.73;7.00;;;;;;;12.49;82.61;95292.75;5075676;28;20167;-66
2021/04/29 07:28:47;;;;;;;6.90;6.07;;;;;;;12.56;84.03;95288.00;5062280;28;20270;-64
2021/04/29 07:31:13;;;;;;;7.87;7.07;;;;;;;12.65;83.57;95289.84;5055288;28;20179;-69
2021/04/29 07:33:39;;;;;;;10.03;6.17;;;;;;;12.68;82.33;95288.53;5073485;28;20174;-64
2021/04/29 07:36:06;;;;;;;7.40;6.57;;;;;;;12.72;82.06;95295.63;5075346;28;20232;-64
2021/04/29 07:38:31;;;;;;;7.77;6.40;;;;;;;13.02;81.47;95295.66;5067237;28;20444;-64
2021/04/29 07:40:57;;;;;;;7.47;6.13;;;;;;;12.71;82.65;95301.19;5075248;28;20529;-63
2021/04/29 07:43:22;;;;;;;7.57;6.83;;;;;;;12.51;82.67;95312.53;5075186;28;20255;-62
2021/04/29 07:45:48;;;;;;;6.37;5.70;;;;;;;12.55;81.42;95299.59;5075160;28;20167;-62
2021/04/29 07:48:13;;;;;;;8.10;7.40;;;;;;;12.88;81.92;95304.34;5073959;28;20180;-66
2021/04/29 07:50:39;;;;;;;8.47;6.97;;;;;;;13.20;80.42;95304.84;5074909;28;20182;-67
2021/04/29 07:53:04;;;;;;;9.40;7.10;;;;;;;12.84;79.01;95301.44;5067828;28;20190;-69
2021/04/29 07:55:30;;;;;;;8.63;7.83;;;;;;;12.81;80.31;95301.19;5074889;28;20175;-65
2021/04/29 07:57:56;;;;;;;7.60;6.80;;;;;;;13.18;79.54;95309.59;5074466;28;20249;-65
2021/04/29 08:00:21;;;;;;;7.80;7.10;;;;;;;13.30;77.09;95310.88;5072597;28;20286;-64
2021/04/29 08:02:48;;;;;;;8.50;7.20;;;;;;;13.43;76.79;95312.16;5074942;28;20294;-64
2021/04/29 08:05:15;;;;;;;9.10;7.43;;;;;;;13.69;77.14;95307.56;5074730;28;20832;-65
2021/04/29 08:07:40;;;;;;;9.03;7.80;;;;;;;13.48;75.45;95322.69;5068670;28;20179;-63
2021/04/29 08:10:08;;;;;;;10.47;8.20;;;;;;;13.67;74.41;95313.13;5054432;28;20444;-65
2021/04/29 08:12:34;;;;;;;7.83;7.13;;;;;;;13.70;74.17;95304.66;5051766;28;20191;-65
2021/04/29 08:15:00;;;;;;;10.60;9.50;;;;;;;13.54;73.68;95307.63;5050997;28;20430;-62
2021/04/29 08:17:29;;;;;;;10.00;8.80;;;;;;;13.80;73.62;95317.03;5050833;28;20278;-63
2021/04/29 08:19:55;;;;;;;10.57;9.17;;;;;;;13.67;73.83;95309.69;5050995;28;20544;-68
2021/04/29 08:22:22;;;;;;;9.93;9.13;;;;;;;13.74;73.99;95316.25;5056141;28;20424;-65
2021/04/29 08:24:48;;;;;;;10.33;8.53;;;;;;;14.06;74.35;95316.63;5052849;28;20939;-60
2021/04/29 08:27:13;;;;;;;10.50;9.47;;;;;;;14.20;72.01;95316.81;5073900;28;20406;-60
2021/04/29 08:29:39;;;;;;;8.93;8.10;;;;;;;14.12;73.20;95322.66;5057936;28;20207;-58
2021/04/29 08:32:05;;;;;;;9.10;8.30;;;;;;;14.38;71.80;95311.69;5054281;28;20179;-63
2021/04/29 08:34:30;;;;;;;10.93;9.90;;;;;;;14.01;71.73;95315.84;5054301;28;20183;-66
2021/04/29 08:36:55;;;;;;;11.03;9.53;;;;;;;13.92;72.08;95320.13;5053804;28;20411;-65
2021/04/29 08:39:21;;;;;;;10.27;9.30;;;;;;;14.21;71.44;95313.91;5053958;28;20570;-64
2021/04/29 08:41:46;;;;;;;10.27;9.17;;;;;;;14.27;71.60;95318.13;5056041;28;20183;-65
2021/04/29 08:44:12;;;;;;;12.23;10.13;;;;;;;14.57;70.81;95322.41;5073963;28;20163;-64
2021/04/29 08:46:37;;;;;;;12.43;9.57;;;;;;;14.67;69.74;95338.19;5074186;28;20182;-65
2021/04/29 08:49:03;;;;;;;13.20;10.37;;;;;;;14.65;69.40;95318.38;5073357;28;20195;-64
2021/04/29 08:51:28;;;;;;;10.30;9.10;;;;;;;14.58;68.38;95323.19;5073846;28;20182;-67
2021/04/29 08:53:55;;;;;;;10.50;9.60;;;;;;;14.77;68.73;95322.25;5055652;28;20186;-65
2021/04/29 08:56:25;;;;;;;10.07;9.03;;;;;;;14.62;68.13;95327.63;5053738;28;20183;-64
2021/04/29 08:58:55;;;;;;;10.80;9.80;;;;;;;14.36;67.66;95321.78;5053264;28;20491;-66
2021/04/29 09:01:21;;;;;;;10.47;9.37;;;;;;;14.36;68.30;95323.63;5053809;28;20406;-63
2021/04/29 09:03:47;;;;;;;10.73;9.40;;;;;;;14.05;67.48;95330.09;5053796;28;20413;-63
2021/04/29 09:06:13;;;;;;;12.03;9.80;;;;;;;14.38;68.39;95324.91;5053870;28;20175;-64
2021/04/29 09:08:40;;;;;;;11.40;10.40;;;;;;;14.18;67.52;95330.31;5054128;28;20446;-64
2021/04/29 09:11:06;;;;;;;10.23;9.17;;;;;;;14.15;68.58;95328.19;5053651;28;20611;-64
2021/04/29 09:13:32;;;;;;;12.40;9.03;;;;;;;14.22;69.26;95325.25;5053542;28;20409;-65
2021/04/29 09:16:14;;;;;;;10.30;9.30;;;;;;;14.46;68.82;95323.53;5059558;28;20624;-64
2021/04/29 09:18:42;;;;;;;10.87;9.60;;;;;;;14.19;68.45;95323.94;5073124;28;20183;-63
2021/04/29 09:21:14;;;;;;;12.07;9.13;;;;;;;14.48;68.46;95328.53;5073527;28;20531;-65
2021/04/29 09:23:51;;;;;;;9.40;8.47;;;;;;;14.58;67.87;95339.06;5073695;28;20458;-64
2021/04/29 09:26:18;;;;;;;13.17;9.13;;;;;;;14.15;69.34;95348.56;5073492;28;20427;-65
2021/04/29 09:28:49;;;;;;;9.00;7.93;;;;;;;14.36;71.01;95355.34;5073150;28;20482;-64
2021/04/29 09:31:17;;;;;;;9.63;8.63;;;;;;;14.09;76.27;95376.06;5067187;28;20511;-64
2021/04/29 09:33:54;;;;;;;7.47;6.77;;;;;;;13.14;82.59;95372.63;5059109;28;20429;-64
2021/04/29 09:36:29;;;;;;;8.80;7.43;;;;;;;12.99;83.11;95377.09;5073351;28;20901;-64
2021/04/29 09:38:58;;;;;;;9.77;8.77;;;;;;;12.33;85.06;95369.16;5072934;28;20487;-63
2021/04/29 09:41:32;;;;;;;13.80;9.70;;;;;;;12.31;86.26;95378.34;5073336;28;20751;-62
2021/04/29 09:44:01;;;;;;;12.03;9.50;;;;;;;12.06;86.45;95381.72;5072012;28;20420;-65
2021/04/29 09:46:50;;;;;;;10.43;9.30;;;;;;;11.99;86.78;95383.00;5062697;28;20474;-63
2021/04/29 09:49:23;;;;;;;12.73;10.10;;;;;;;11.72;88.64;95383.13;5052986;28;20479;-65
2021/04/29 09:51:53;;;;;;;11.43;10.30;;;;;;;11.55;91.99;95376.47;5053349;28;20456;-63
2021/04/29 09:54:29;;;;;;;10.70;9.70;;;;;;;11.85;94.58;95356.34;5053267;28;20832;-64
2021/04/29 09:57:04;;;;;;;12.90;11.70;;;;;;;12.10;94.81;95356.44;5053000;28;20468;-65
2021/04/29 09:59:30;;;;;;;12.50;11.27;;;;;;;12.69;94.17;95354.16;5052962;28;20476;-64
2021/04/29 10:01:57;;;;;;;13.17;10.70;;;;;;;12.63;94.86;95349.16;5067633;28;20533;-60
2021/04/29 10:04:24;;;;;;;12.80;11.57;;;;;;;13.08;94.84;95342.03;5064324;28;20559;-67
2021/04/29 10:06:51;;;;;;;12.83;11.33;;;;;;;13.21;92.80;95345.97;5061360;28;21382;-66
2021/04/29 10:09:17;;;;;;;14.20;10.60;;;;;;;13.44;89.88;95346.19;5073282;28;20429;-65
2021/04/29 10:11:44;;;;;;;11.80;10.70;;;;;;;13.64;89.75;95341.91;5072927;28;20906;-63
2021/04/29 10:14:15;;;;;;;11.50;10.40;;;;;;;13.50;88.96;95348.81;5076871;28;20409;-66
2021/04/29 10:16:41;;;;;;;11.97;10.70;;;;;;;13.68;87.26;95348.25;5064386;28;20426;-67
2021/04/29 10:19:06;;;;;;;11.53;10.50;;;;;;;13.85;84.65;95343.41;5058728;28;20477;-64
2021/04/29 10:21:33;;;;;;;11.03;10.03;;;;;;;13.90;85.34;95343.38;5076840;28;20504;-68
2021/04/29 10:23:58;;;;;;;10.13;9.33;;;;;;;14.03;83.66;95333.03;5077085;28;20175;-70
2021/04/29 10:26:30;;;;;;;10.53;9.30;;;;;;;14.32;80.80;95346.38;5076586;28;20431;-62
2021/04/29 10:29:01;;;;;;;9.87;8.23;;;;;;;14.48;77.16;95337.28;5076249;28;20202;-67
2021/04/29 10:31:30;;;;;;;9.50;8.60;;;;;;;14.58;75.88;95334.56;5065063;28;20421;-63
2021/04/29 10:33:58;;;;;;;9.13;8.33;;;;;;;14.56;74.11;95333.25;5056594;28;20466;-63
2021/04/29 10:36:44;;;;;;;8.47;7.60;;;;;;;14.57;73.02;95337.47;5056601;28;20418;-63
2021/04/29 10:39:18;;;;;;;7.97;7.30;;;;;;;14.44;70.50;95339.66;5055866;28;20510;-63
2021/04/29 10:41:46;;;;;;;7.70;6.90;;;;;;;14.61;69.31;95339.28;5056555;28;20410;-67
2021/04/29 10:44:13;;;;;;;9.33;8.33;;;;;;;14.60;69.59;95337.72;5056051;28;20772;-63
2021/04/29 10:46:39;;;;;;;8.57;7.70;;;;;;;14.48;68.47;95341.75;5062753;28;20432;-63
2021/04/29 10:49:07;;;;;;;7.77;7.00;;;;;;;14.93;68.07;95347.50;5064936;28;20579;-63
2021/04/29 10:51:39;;;;;;;8.03;6.33;;;;;;;15.13;65.56;95336.75;5056090;28;20418;-66
2021/04/29 10:54:24;;;;;;;8.90;8.00;;;;;;;14.97;65.95;95350.38;5056236;28;20502;-63
2021/04/29 10:57:16;;;;;;;7.83;7.00;;;;;;;14.97;66.86;95340.59;5056710;28;20421;-68
2021/04/29 10:59:48;;;;;;;8.23;7.43;;;;;;;15.14;66.57;95342.81;5061205;28;20510;-65
2021/04/29 11:02:31;;;;;;;7.40;6.70;;;;;;;15.65;67.32;95340.47;5076195;28;20413;-65
2021/04/29 11:04:57;;;;;;;9.60;7.13;;;;;;;15.43;63.66;95338.34;5058257;28;20506;-67
2021/04/29 11:07:25;;;;;;;6.60;6.00;;;;;;;15.22;64.18;95340.34;5052015;28;20410;-65
2021/04/29 11:10:05;;;;;;;7.90;7.20;;;;;;;15.40;64.08;95341.50;5052465;28;21205;-65
2021/04/29 11:12:48;;;;;;;8.43;7.20;;;;;;;15.72;62.79;95343.56;5052160;28;20418;-67
2021/04/29 11:15:26;;;;;;;10.37;7.40;;;;;;;15.80;63.74;95340.31;5053307;28;20540;-66
2021/04/29 11:18:12;;;;;;;8.50;7.80;;;;;;;16.20;64.80;95326.53;5051409;28;20513;-67
2021/04/29 11:20:54;;;;;;;8.10;7.30;;;;;;;16.37;64.43;95343.53;5050671;28;20507;-64
2021/04/29 11:23:27;;;;;;;6.70;5.70;;;;;;;16.60;57.49;95357.00;5052011;28;20413;-67
2021/04/29 11:26:04;;;;;;;6.10;5.50;;;;;;;16.51;58.33;95356.09;5071353;28;20432;-66
2021/04/29 11:28:31;;;;;;;6.10;5.50;;;;;;;16.08;60.91;95353.47;5071831;28;20405;-66
2021/04/29 11:30:57;;;;;;;6.13;5.63;;;;;;;16.62;61.43;95349.56;5065784;28;20422;-64